createdAt,value
2019-03-30T00:01:56.760Z,101732.77
2019-03-30T00:04:24.291Z,101734.97
2019-03-30T00:06:51.769Z,101730.59
2019-03-30T00:09:19.272Z,101731.91
2019-03-30T00:11:46.801Z,101728.84
2019-03-30T00:14:14.321Z,101734.95
2019-03-30T00:16:41.786Z,101724.95
2019-03-30T00:19:09.301Z,101725.81
2019-03-30T00:21:36.792Z,101721.91
2019-03-30T00:24:04.326Z,101720.61
2019-03-30T00:26:31.808Z,101721.89
2019-03-30T00:28:59.317Z,101725.40
2019-03-30T00:31:26.826Z,101729.31
2019-03-30T00:33:54.350Z,101724.97
2019-03-30T00:36:21.818Z,101725.38
2019-03-30T00:38:49.342Z,101718.45
2019-03-30T00:41:16.823Z,101721.89
2019-03-30T00:43:44.342Z,101721.91
2019-03-30T00:46:11.827Z,101715.83
2019-03-30T00:48:39.334Z,101712.80
2019-03-30T00:51:06.807Z,101716.26
2019-03-30T00:53:34.333Z,101719.72
2019-03-30T00:56:01.840Z,101720.59
2019-03-30T00:58:29.349Z,101719.31
2019-03-30T01:00:56.832Z,101713.22
2019-03-30T01:03:24.366Z,101713.20
2019-03-30T01:05:51.871Z,101715.80
2019-03-30T01:08:19.360Z,101714.50
2019-03-30T01:10:47.176Z,101709.74
2019-03-30T01:13:14.767Z,101714.06
2019-03-30T01:15:42.282Z,101715.83
2019-03-30T01:18:09.867Z,101706.27
2019-03-30T01:20:37.374Z,101709.73
2019-03-30T01:23:04.908Z,101700.20
2019-03-30T01:25:32.410Z,101706.27
2019-03-30T01:27:59.899Z,101701.48
2019-03-30T01:30:27.531Z,101693.23
2019-03-30T01:32:55.020Z,101685.41
2019-03-30T01:35:22.682Z,101686.30
2019-03-30T01:37:50.377Z,101688.45
2019-03-30T01:40:18.180Z,101689.31
2019-03-30T01:42:45.670Z,101694.96
2019-03-30T01:45:13.171Z,101690.63
2019-03-30T01:47:40.636Z,101688.88
2019-03-30T01:50:17.267Z,101688.03
2019-03-30T01:52:38.337Z,101692.78
2019-03-30T01:55:06.176Z,101683.64
2019-03-30T01:57:33.723Z,101684.95
2019-03-30T02:00:01.273Z,101682.34
2019-03-30T02:02:28.851Z,101684.09
2019-03-30T02:04:56.442Z,101674.54
2019-03-30T02:07:23.899Z,101677.98
2019-03-30T02:09:51.425Z,101674.13
2019-03-30T02:12:18.923Z,101668.04
2019-03-30T02:14:46.444Z,101669.75
2019-03-30T02:17:13.944Z,101668.00
2019-03-30T02:19:41.700Z,101668.01
2019-03-30T02:22:09.261Z,101661.48
2019-03-30T02:24:36.809Z,101662.34
2019-03-30T02:27:04.339Z,101659.31
2019-03-30T02:29:31.853Z,101657.09
2019-03-30T02:31:59.357Z,101653.62
2019-03-30T02:34:26.927Z,101651.86
2019-03-30T02:36:54.426Z,101660.09
2019-03-30T02:39:21.945Z,101657.45
2019-03-30T02:41:49.475Z,101654.00
2019-03-30T02:44:17.013Z,101650.95
2019-03-30T02:46:44.541Z,101643.58
2019-03-30T02:49:12.043Z,101641.81
2019-03-30T02:51:39.583Z,101643.06
2019-03-30T02:54:07.062Z,101637.46
2019-03-30T02:56:34.629Z,101639.12
2019-03-30T02:59:02.278Z,101634.37
2019-03-30T03:01:29.816Z,101633.80
2019-03-30T03:03:57.345Z,101635.09
2019-03-30T03:06:24.854Z,101636.41
2019-03-30T03:08:52.365Z,101632.51
2019-03-30T03:11:19.859Z,101627.20
2019-03-30T03:13:47.338Z,101625.05
2019-03-30T03:16:14.878Z,101623.32
2019-03-30T03:18:42.397Z,101622.41
2019-03-30T03:21:09.896Z,101618.94
2019-03-30T03:23:37.389Z,101619.78
2019-03-30T03:26:04.970Z,101616.32
2019-03-30T03:28:32.431Z,101615.00
2019-03-30T03:30:59.923Z,101613.20
2019-03-30T03:33:27.385Z,101606.58
2019-03-30T03:35:54.875Z,101600.44
2019-03-30T03:38:22.340Z,101598.84
2019-03-30T03:40:50.406Z,101594.16
2019-03-30T03:43:17.939Z,101596.16
2019-03-30T03:45:45.557Z,101594.79
2019-03-30T03:48:13.044Z,101598.77
2019-03-30T03:50:52.628Z,101587.46
2019-03-30T03:53:20.133Z,101589.17
2019-03-30T03:55:47.753Z,101588.69
2019-03-30T03:58:16.558Z,101586.48
2019-03-30T04:00:44.887Z,101585.60
2019-03-30T04:03:16.812Z,101580.87
2019-03-30T04:05:45.660Z,101579.16
2019-03-30T04:08:13.177Z,101576.48
2019-03-30T04:10:42.863Z,101567.48
2019-03-30T04:13:13.208Z,101567.34
2019-03-30T04:15:40.715Z,101560.34
2019-03-30T04:18:08.179Z,101558.64
2019-03-30T04:20:36.053Z,101564.61
2019-03-30T04:23:03.559Z,101560.28
2019-03-30T04:25:31.018Z,101556.42
2019-03-30T04:27:58.550Z,101554.58
2019-03-30T04:30:26.107Z,101552.01
2019-03-30T04:32:53.670Z,101549.78
2019-03-30T04:35:21.168Z,101557.91
2019-03-30T04:37:48.695Z,101549.75
2019-03-30T04:40:16.188Z,101551.08
2019-03-30T04:42:43.695Z,101550.68
2019-03-30T04:45:11.215Z,101547.86
2019-03-30T04:47:38.731Z,101546.97
2019-03-30T04:50:06.657Z,101541.34
2019-03-30T04:52:34.171Z,101545.73
2019-03-30T04:55:01.675Z,101538.32
2019-03-30T04:57:29.249Z,101537.02
2019-03-30T04:59:56.714Z,101531.50
2019-03-30T05:02:24.231Z,101538.85
2019-03-30T05:04:51.758Z,101539.31
2019-03-30T05:07:19.250Z,101533.97
2019-03-30T05:09:48.263Z,101541.75
2019-03-30T05:12:15.859Z,101540.95
2019-03-30T05:14:43.409Z,101542.25
2019-03-30T05:17:10.887Z,101541.78
2019-03-30T05:19:38.438Z,101547.93
2019-03-30T05:22:12.652Z,101551.33
2019-03-30T05:24:35.282Z,101542.74
2019-03-30T05:27:02.800Z,101544.10
2019-03-30T05:29:30.280Z,101538.32
2019-03-30T05:31:57.785Z,101536.59
2019-03-30T05:34:25.266Z,101540.91
2019-03-30T05:36:52.778Z,101536.99
2019-03-30T05:39:20.239Z,101540.58
2019-03-30T05:41:47.740Z,101534.92
2019-03-30T05:44:15.215Z,101537.05
2019-03-30T05:46:42.744Z,101542.37
2019-03-30T05:49:10.237Z,101536.38
2019-03-30T05:51:37.754Z,101537.25
2019-03-30T05:54:05.274Z,101535.95
2019-03-30T05:56:32.792Z,101533.38
2019-03-30T05:59:00.384Z,101534.22
2019-03-30T06:01:27.884Z,101530.38
2019-03-30T06:03:55.390Z,101529.58
2019-03-30T06:06:22.870Z,101528.36
2019-03-30T06:08:50.377Z,101529.25
2019-03-30T06:11:17.917Z,101521.52
2019-03-30T06:13:45.587Z,101530.67
2019-03-30T06:16:13.079Z,101525.07
2019-03-30T06:18:40.616Z,101528.23
2019-03-30T06:21:08.146Z,101530.39
2019-03-30T06:23:35.633Z,101520.15
2019-03-30T06:26:03.108Z,101527.14
2019-03-30T06:28:30.663Z,101522.46
2019-03-30T06:30:58.148Z,101522.86
2019-03-30T06:33:25.666Z,101530.71
2019-03-30T06:35:53.163Z,101519.95
2019-03-30T06:38:20.645Z,101528.22
2019-03-30T06:40:48.120Z,101523.05
2019-03-30T06:43:15.706Z,101522.17
2019-03-30T06:45:43.201Z,101517.86
2019-03-30T06:48:10.696Z,101520.46
2019-03-30T06:50:38.182Z,101518.28
2019-03-30T06:53:05.739Z,101513.50
2019-03-30T06:55:33.233Z,101520.43
2019-03-30T06:58:00.729Z,101519.97
2019-03-30T07:00:32.607Z,101521.72
2019-03-30T07:03:02.543Z,101522.09
2019-03-30T07:05:30.623Z,101520.73
2019-03-30T07:07:59.216Z,101519.45
2019-03-30T07:10:26.818Z,101511.99
2019-03-30T07:12:54.939Z,101516.70
2019-03-30T07:15:24.134Z,101512.77
2019-03-30T07:17:54.140Z,101513.66
2019-03-30T07:20:30.672Z,101510.09
2019-03-30T07:23:11.108Z,101503.03
2019-03-30T07:25:27.703Z,101503.00
2019-03-30T07:27:58.330Z,101504.17
2019-03-30T07:30:27.087Z,101498.77
2019-03-30T07:32:54.692Z,101497.92
2019-03-30T07:35:22.183Z,101501.33
2019-03-30T07:37:49.714Z,101496.41
2019-03-30T07:40:17.175Z,101495.94
2019-03-30T07:42:44.663Z,101498.60
2019-03-30T07:45:12.387Z,101494.53
2019-03-30T07:47:39.926Z,101500.41
2019-03-30T07:50:07.562Z,101493.75
2019-03-30T07:52:35.035Z,101493.81
2019-03-30T07:55:02.544Z,101496.84
2019-03-30T07:57:30.031Z,101506.80
2019-03-30T07:59:57.576Z,101489.97
2019-03-30T08:02:25.145Z,101498.27
2019-03-30T08:04:52.643Z,101496.81
2019-03-30T08:07:20.098Z,101494.34
2019-03-30T08:09:47.683Z,101498.33
2019-03-30T08:12:15.198Z,101489.28
2019-03-30T08:14:45.110Z,101491.48
2019-03-30T08:17:12.081Z,101487.18
2019-03-30T08:19:39.569Z,101478.11
2019-03-30T08:22:07.063Z,101473.93
2019-03-30T08:24:34.583Z,101479.27
2019-03-30T08:27:02.119Z,101480.07
2019-03-30T08:29:29.650Z,101482.66
2019-03-30T08:31:57.168Z,101478.92
2019-03-30T08:34:24.693Z,101477.50
2019-03-30T08:36:52.186Z,101483.56
2019-03-30T08:39:19.704Z,101477.48
2019-03-30T08:41:47.241Z,101473.95
2019-03-30T08:44:14.737Z,101484.45
2019-03-30T08:46:42.304Z,101477.05
2019-03-30T08:49:09.840Z,101475.11
2019-03-30T08:51:37.309Z,101476.19
2019-03-30T08:54:04.837Z,101466.52
2019-03-30T08:56:32.506Z,101463.70
2019-03-30T08:59:00.083Z,101457.99
2019-03-30T09:01:27.538Z,101458.40
2019-03-30T09:03:55.024Z,101451.81
2019-03-30T09:06:22.499Z,101446.58
2019-03-30T09:08:49.978Z,101455.41
2019-03-30T09:11:17.452Z,101447.84
2019-03-30T09:13:44.948Z,101446.29
2019-03-30T09:16:12.432Z,101442.03
2019-03-30T09:18:39.921Z,101439.34
2019-03-30T09:21:07.450Z,101432.86
2019-03-30T09:23:34.937Z,101436.84
2019-03-30T09:26:02.364Z,101433.34
2019-03-30T09:28:29.840Z,101430.76
2019-03-30T09:30:57.353Z,101425.42
2019-03-30T09:33:24.842Z,101427.42
2019-03-30T09:35:52.325Z,101420.44
2019-03-30T09:38:19.989Z,101421.40
2019-03-30T09:40:47.618Z,101418.77
2019-03-30T09:43:15.231Z,101417.93
2019-03-30T09:45:42.715Z,101416.42
2019-03-30T09:50:50.441Z,101409.16
2019-03-30T09:53:17.943Z,101411.70
2019-03-30T09:55:45.506Z,101411.70
2019-03-30T09:58:13.033Z,101404.52
2019-03-30T10:00:40.564Z,101409.36
2019-03-30T10:03:08.054Z,101395.12
2019-03-30T10:05:35.572Z,101393.11
2019-03-30T10:08:03.127Z,101394.24
2019-03-30T10:10:30.628Z,101393.13
2019-03-30T10:12:58.281Z,101387.55
2019-03-30T10:15:25.811Z,101386.53
2019-03-30T10:17:53.301Z,101380.47
2019-03-30T10:20:20.809Z,101383.09
2019-03-30T10:22:48.288Z,101382.31
2019-03-30T10:25:15.859Z,101379.87
2019-03-30T10:27:43.359Z,101369.66
2019-03-30T10:30:11.430Z,101371.39
2019-03-30T10:32:38.848Z,101364.06
2019-03-30T10:35:06.736Z,101363.93
2019-03-30T10:37:34.211Z,101367.88
2019-03-30T10:40:01.738Z,101369.38
2019-03-30T10:42:29.228Z,101363.53
2019-03-30T10:44:56.759Z,101358.73
2019-03-30T10:47:24.345Z,101358.63
2019-03-30T10:49:52.401Z,101354.02
2019-03-30T10:52:19.875Z,101345.77
2019-03-30T10:54:52.937Z,101345.80
2019-03-30T10:57:16.771Z,101338.83
2019-03-30T10:59:44.392Z,101333.05
2019-03-30T11:02:11.935Z,101308.28
2019-03-30T11:04:39.471Z,101334.92
2019-03-30T11:07:06.939Z,101335.20
2019-03-30T11:09:35.978Z,101332.22
2019-03-30T11:12:05.754Z,101325.25
2019-03-30T11:14:37.121Z,101320.66
2019-03-30T11:17:04.615Z,101321.03
2019-03-30T11:19:32.129Z,101319.61
2019-03-30T11:22:02.876Z,101311.83
2019-03-30T11:24:29.005Z,101307.64
2019-03-30T11:26:56.506Z,101297.95
2019-03-30T11:29:23.991Z,101296.56
2019-03-30T11:31:51.465Z,101296.24
2019-03-30T11:34:19.001Z,101291.34
2019-03-30T11:36:46.477Z,101294.51
2019-03-30T11:39:13.981Z,101292.27
2019-03-30T11:41:41.509Z,101298.67
2019-03-30T11:44:09.007Z,101279.80
2019-03-30T11:46:36.521Z,101271.51
2019-03-30T11:49:04.050Z,101241.16
2019-03-30T11:51:31.585Z,101278.56
2019-03-30T11:53:59.088Z,101278.80
2019-03-30T11:56:26.630Z,101278.70
2019-03-30T11:58:54.110Z,101269.89
2019-03-30T12:01:22.018Z,101262.96
2019-03-30T12:03:49.622Z,101264.03
2019-03-30T12:06:17.191Z,101263.91
2019-03-30T12:08:44.668Z,101256.95
2019-03-30T12:11:12.274Z,101261.48
2019-03-30T12:13:39.731Z,101251.33
2019-03-30T12:16:07.250Z,101253.90
2019-03-30T12:18:34.698Z,101241.84
2019-03-30T12:21:02.212Z,101244.40
2019-03-30T12:23:29.711Z,101242.47
2019-03-30T12:25:57.160Z,101242.58
2019-03-30T12:28:24.826Z,101233.89
2019-03-30T12:30:52.359Z,101228.86
2019-03-30T12:33:19.829Z,101227.73
2019-03-30T12:35:47.439Z,101231.22
2019-03-30T12:38:14.919Z,101230.70
2019-03-30T12:40:42.419Z,101226.75
2019-03-30T12:43:09.920Z,101233.30
2019-03-30T12:45:37.426Z,101225.70
2019-03-30T12:48:04.987Z,101222.99
2019-03-30T12:50:32.726Z,101216.22
2019-03-30T12:53:00.949Z,101214.16
2019-03-30T12:55:28.454Z,101212.42
2019-03-30T12:57:55.950Z,101207.61
2019-03-30T13:00:23.935Z,101202.73
2019-03-30T13:02:52.029Z,101206.55
2019-03-30T13:05:19.565Z,101204.23
2019-03-30T13:07:47.036Z,101203.75
2019-03-30T13:10:14.745Z,101200.13
2019-03-30T13:12:42.207Z,101204.09
2019-03-30T13:15:09.733Z,101193.42
2019-03-30T13:17:37.212Z,101202.55
2019-03-30T13:20:05.533Z,101203.11
2019-03-30T13:22:33.069Z,101199.52
2019-03-30T13:25:00.620Z,101203.62
2019-03-30T13:27:28.090Z,101207.11
2019-03-30T13:29:55.592Z,101211.66
2019-03-30T13:32:23.194Z,101204.69
2019-03-30T13:34:50.754Z,101209.38
2019-03-30T13:37:19.096Z,101211.34
2019-03-30T13:39:46.594Z,101206.44
2019-03-30T13:42:14.097Z,101205.70
2019-03-30T13:44:41.613Z,101202.30
2019-03-30T13:47:09.130Z,101201.88
2019-03-30T13:49:36.613Z,101210.98
2019-03-30T13:52:04.126Z,101200.53
2019-03-30T13:54:31.583Z,101194.38
2019-03-30T13:56:59.166Z,101195.23
2019-03-30T13:59:26.725Z,101200.48
2019-03-30T14:01:54.272Z,101197.59
2019-03-30T14:04:21.742Z,101194.53
2019-03-30T14:06:49.261Z,101197.88
2019-03-30T14:09:16.904Z,101199.85
2019-03-30T14:11:44.396Z,101197.61
2019-03-30T14:14:11.856Z,101196.34
2019-03-30T14:16:39.384Z,101190.50
2019-03-30T14:19:06.886Z,101187.44
2019-03-30T14:21:34.384Z,101192.61
2019-03-30T14:24:01.898Z,101193.02
2019-03-30T14:26:31.653Z,101160.08
2019-03-30T14:28:58.775Z,101192.84
2019-03-30T14:31:26.281Z,101193.41
2019-03-30T14:33:53.770Z,101194.47
2019-03-30T14:36:21.250Z,101192.16
2019-03-30T14:38:48.730Z,101190.16
2019-03-30T14:41:16.288Z,101191.58
2019-03-30T14:43:43.774Z,101192.08
2019-03-30T14:46:11.271Z,101180.72
2019-03-30T14:48:38.774Z,101187.52
2019-03-30T14:51:06.262Z,101191.28
2019-03-30T14:53:33.735Z,101189.25
2019-03-30T14:56:01.733Z,101184.08
2019-03-30T14:58:29.242Z,101185.27
2019-03-30T15:00:56.713Z,101175.17
2019-03-30T15:03:24.178Z,101175.06
2019-03-30T15:05:51.651Z,101181.33
2019-03-30T15:08:19.172Z,101180.45
2019-03-30T15:10:46.656Z,101175.84
2019-03-30T15:13:14.190Z,101173.87
2019-03-30T15:15:41.660Z,101177.34
2019-03-30T15:18:09.140Z,101179.42
2019-03-30T15:20:36.638Z,101171.92
2019-03-30T15:23:04.131Z,101173.97
2019-03-30T15:25:31.599Z,101173.56
2019-03-30T15:27:59.111Z,101174.05
2019-03-30T15:30:26.583Z,101168.67
2019-03-30T15:32:54.062Z,101170.90
2019-03-30T15:35:21.546Z,101170.49
2019-03-30T15:37:49.039Z,101166.70
2019-03-30T15:40:16.506Z,101166.13
2019-03-30T15:42:44.000Z,101163.39
2019-03-30T15:45:11.519Z,101164.59
2019-03-30T15:47:38.985Z,101161.78
2019-03-30T15:50:07.489Z,101154.42
2019-03-30T15:52:35.048Z,101152.08
2019-03-30T15:55:02.522Z,101159.55
2019-03-30T15:57:30.053Z,101154.98
2019-03-30T15:59:57.815Z,101148.58
2019-03-30T16:02:25.306Z,101156.66
2019-03-30T16:04:52.771Z,101153.66
2019-03-30T16:07:20.255Z,101148.13
2019-03-30T16:09:47.926Z,101147.69
2019-03-30T16:12:15.467Z,101152.28
2019-03-30T16:14:42.901Z,101149.70
2019-03-30T16:17:10.423Z,101150.03
2019-03-30T16:19:37.899Z,101161.11
2019-03-30T16:22:05.507Z,101158.77
2019-03-30T16:24:32.982Z,101171.94
2019-03-30T16:27:00.485Z,101158.52
2019-03-30T16:29:28.016Z,101158.73
2019-03-30T16:31:55.523Z,101158.86
2019-03-30T16:34:22.998Z,101160.13
2019-03-30T16:36:50.461Z,101157.15
2019-03-30T16:39:17.987Z,101156.78
2019-03-30T16:41:45.465Z,101158.36
2019-03-30T16:44:12.984Z,101162.02
2019-03-30T16:46:40.482Z,101161.42
2019-03-30T16:49:07.986Z,101165.17
2019-03-30T16:51:35.476Z,101156.98
2019-03-30T16:54:06.709Z,101162.77
2019-03-30T16:56:34.301Z,101160.01
2019-03-30T16:59:01.852Z,101161.51
2019-03-30T17:01:29.311Z,101159.98
2019-03-30T17:03:56.923Z,101163.07
2019-03-30T17:06:24.400Z,101162.92
2019-03-30T17:08:52.437Z,101160.57
2019-03-30T17:11:19.966Z,101161.09
2019-03-30T17:13:47.477Z,101161.23
2019-03-30T17:16:14.958Z,101159.39
2019-03-30T17:18:42.459Z,101146.08
2019-03-30T17:21:09.943Z,101157.61
2019-03-30T17:23:37.490Z,101159.25
2019-03-30T17:26:04.957Z,101159.15
2019-03-30T17:28:32.532Z,101153.58
2019-03-30T17:31:00.030Z,101156.63
2019-03-30T17:33:27.586Z,101157.48
2019-03-30T17:35:55.111Z,101149.69
2019-03-30T17:38:22.609Z,101151.14
2019-03-30T17:40:50.085Z,101152.48
2019-03-30T17:43:17.947Z,101155.51
2019-03-30T17:45:45.432Z,101151.63
2019-03-30T17:48:12.950Z,101160.52
2019-03-30T17:50:40.517Z,101161.42
2019-03-30T17:53:08.047Z,101153.38
2019-03-30T17:55:35.542Z,101159.00
2019-03-30T17:58:12.773Z,101163.48
2019-03-30T18:00:35.191Z,101159.37
2019-03-30T18:03:03.660Z,101166.63
2019-03-30T18:05:33.355Z,101162.19
2019-03-30T18:08:02.097Z,101169.89
2019-03-30T18:10:30.018Z,101170.64
2019-03-30T18:12:57.578Z,101171.34
2019-03-30T18:15:25.350Z,101169.80
2019-03-30T18:17:56.522Z,101174.41
2019-03-30T18:20:22.709Z,101178.17
2019-03-30T18:22:50.454Z,101177.41
2019-03-30T18:25:18.182Z,101180.16
2019-03-30T18:27:45.904Z,101186.36
2019-03-30T18:30:13.894Z,101186.12
2019-03-30T18:32:41.363Z,101184.16
2019-03-30T18:35:08.863Z,101190.65
2019-03-30T18:37:37.546Z,101192.29
2019-03-30T18:40:05.666Z,101194.95
2019-03-30T18:42:33.443Z,101193.78
2019-03-30T18:45:02.101Z,101198.80
2019-03-30T18:47:29.573Z,101206.30
2019-03-30T18:49:57.078Z,101203.19
2019-03-30T18:52:24.550Z,101210.66
2019-03-30T18:54:52.359Z,101211.59
2019-03-30T18:57:19.936Z,101208.92
2019-03-30T18:59:47.435Z,101213.72
2019-03-30T19:02:14.894Z,101206.02
2019-03-30T19:04:42.397Z,101212.86
2019-03-30T19:07:10.729Z,101214.92
2019-03-30T19:09:38.289Z,101209.77
2019-03-30T19:12:05.758Z,101213.59
2019-03-30T19:14:33.282Z,101219.48
2019-03-30T19:17:00.746Z,101222.25
2019-03-30T19:19:28.253Z,101218.29
2019-03-30T19:21:55.785Z,101220.75
2019-03-30T19:24:23.282Z,101221.77
2019-03-30T19:26:50.783Z,101212.34
2019-03-30T19:29:18.290Z,101215.03
2019-03-30T19:31:45.760Z,101213.17
2019-03-30T19:34:13.277Z,101216.58
2019-03-30T19:36:40.771Z,101216.06
2019-03-30T19:39:09.240Z,101220.77
2019-03-30T19:41:36.699Z,101222.08
2019-03-30T19:44:04.198Z,101220.50
2019-03-30T19:46:31.658Z,101224.22
2019-03-30T19:48:59.145Z,101230.13
2019-03-30T19:51:26.622Z,101231.38
2019-03-30T19:53:54.107Z,101231.44
2019-03-30T19:56:21.630Z,101228.62
2019-03-30T19:58:49.109Z,101228.78
2019-03-30T20:01:16.615Z,101231.88
2019-03-30T20:03:44.091Z,101229.59
2019-03-30T20:06:11.623Z,101229.40
2019-03-30T20:08:39.082Z,101228.73
2019-03-30T20:11:06.623Z,101226.43
2019-03-30T20:13:34.106Z,101233.34
2019-03-30T20:16:01.639Z,101229.28
2019-03-30T20:18:29.126Z,101237.95
2019-03-30T20:20:56.650Z,101241.68
2019-03-30T20:23:24.132Z,101242.71
2019-03-30T20:25:51.693Z,101242.66
2019-03-30T20:28:19.180Z,101246.69
2019-03-30T20:30:46.764Z,101244.80
2019-03-30T20:33:14.242Z,101244.93
2019-03-30T20:35:41.863Z,101248.23
2019-03-30T20:38:09.349Z,101248.81
2019-03-30T20:40:36.893Z,101244.20
2019-03-30T20:43:04.403Z,101248.82
2019-03-30T20:45:32.053Z,101250.30
2019-03-30T20:47:59.524Z,101247.95
2019-03-30T20:50:27.057Z,101249.25
2019-03-30T20:52:54.577Z,101246.42
2019-03-30T20:55:22.215Z,101248.98
2019-03-30T20:57:49.711Z,101250.56
2019-03-30T21:00:17.230Z,101244.55
2019-03-30T21:02:44.890Z,101246.30
2019-03-30T21:05:14.212Z,101250.59
2019-03-30T21:07:41.981Z,101258.02
2019-03-30T21:10:09.903Z,101254.44
2019-03-30T21:12:37.426Z,101253.27
2019-03-30T21:15:05.971Z,101255.02
2019-03-30T21:17:33.493Z,101262.12
2019-03-30T21:20:01.247Z,101264.69
2019-03-30T21:22:28.702Z,101260.41
2019-03-30T21:24:56.233Z,101266.05
2019-03-30T21:27:23.702Z,101271.12
2019-03-30T21:29:54.797Z,101270.27
2019-03-30T21:32:20.615Z,101267.24
2019-03-30T21:34:48.083Z,101265.66
2019-03-30T21:37:15.618Z,101261.27
2019-03-30T21:39:43.095Z,101262.44
2019-03-30T21:42:10.722Z,101262.03
2019-03-30T21:44:38.201Z,101259.66
2019-03-30T21:47:05.735Z,101250.16
2019-03-30T21:49:33.229Z,101252.71
2019-03-30T21:52:01.083Z,101258.00
2019-03-30T21:54:28.643Z,101253.08
2019-03-30T21:56:56.143Z,101258.21
2019-03-30T21:59:23.616Z,101260.31
2019-03-30T22:01:51.323Z,101260.94
2019-03-30T22:04:18.795Z,101263.28
2019-03-30T22:06:46.475Z,101270.04
2019-03-30T22:09:13.947Z,101270.42
2019-03-30T22:11:41.500Z,101269.92
2019-03-30T22:14:09.083Z,101272.54
2019-03-30T22:16:36.610Z,101274.71
2019-03-30T22:19:04.140Z,101284.23
2019-03-30T22:21:31.711Z,101277.81
2019-03-30T22:23:59.205Z,101279.73
2019-03-30T22:26:26.701Z,101280.08
2019-03-30T22:28:54.250Z,101278.45
2019-03-30T22:31:21.737Z,101274.89
2019-03-30T22:33:49.243Z,101280.50
2019-03-30T22:36:16.731Z,101274.17
2019-03-30T22:38:44.305Z,101282.01
2019-03-30T22:41:11.841Z,101274.08
2019-03-30T22:43:39.377Z,101270.82
2019-03-30T22:46:07.759Z,101280.42
2019-03-30T22:48:35.378Z,101276.24
2019-03-30T22:51:02.868Z,101275.39
2019-03-30T22:53:30.661Z,101278.48
2019-03-30T22:55:58.422Z,101280.72
2019-03-30T22:58:25.967Z,101275.53
2019-03-30T23:01:11.129Z,101274.00
2019-03-30T23:03:38.683Z,101277.81
2019-03-30T23:06:06.241Z,101276.44
2019-03-30T23:08:33.792Z,101275.20
2019-03-30T23:11:01.256Z,101269.16
2019-03-30T23:13:28.745Z,101273.18
2019-03-30T23:15:56.474Z,101264.63
2019-03-30T23:18:23.972Z,101270.84
2019-03-30T23:20:51.471Z,101268.58
2019-03-30T23:23:19.019Z,101273.80
2019-03-30T23:25:46.493Z,101278.41
2019-03-30T23:28:14.022Z,101274.83
2019-03-30T23:30:53.630Z,101267.06
2019-03-30T23:33:11.205Z,101269.71
2019-03-30T23:35:38.681Z,101269.88
2019-03-30T23:38:06.173Z,101276.92
2019-03-30T23:40:33.727Z,101281.03
2019-03-30T23:43:02.367Z,101273.38
2019-03-30T23:45:30.118Z,101266.80
2019-03-30T23:47:57.780Z,101280.08
2019-03-30T23:50:25.630Z,101281.38
2019-03-30T23:52:53.219Z,101276.22
2019-03-30T23:55:20.999Z,101279.30
2019-03-30T23:57:48.589Z,101276.38
